sensor_id;sensor_type;location;lat;lon;timestamp;P1;durP1;ratioP1;P2;durP2;ratioP2
66927;SDS011;59882;45.624;11.698;2023-09-19T00:01:08;32.63;;;23.02;;
66927;SDS011;59882;45.624;11.698;2023-09-19T00:03:34;32.03;;;23.08;;
66927;SDS011;59882;45.624;11.698;2023-09-19T00:06:02;34.15;;;23.13;;
66927;SDS011;59882;45.624;11.698;2023-09-19T00:08:29;28.70;;;23.13;;
66927;SDS011;59882;45.624;11.698;2023-09-19T00:10:56;31.73;;;23.60;;
66927;SDS011;59882;45.624;11.698;2023-09-19T00:13:23;28.40;;;21.67;;
66927;SDS011;59882;45.624;11.698;2023-09-19T00:15:49;29.20;;;22.17;;
66927;SDS011;59882;45.624;11.698;2023-09-19T00:18:15;31.97;;;25.00;;
66927;SDS011;59882;45.624;11.698;2023-09-19T00:20:43;28.70;;;22.50;;
66927;SDS011;59882;45.624;11.698;2023-09-19T00:23:12;31.45;;;23.85;;
66927;SDS011;59882;45.624;11.698;2023-09-19T00:25:38;32.05;;;24.50;;
66927;SDS011;59882;45.624;11.698;2023-09-19T00:28:05;30.00;;;22.95;;
66927;SDS011;59882;45.624;11.698;2023-09-19T00:30:32;30.70;;;23.03;;
66927;SDS011;59882;45.624;11.698;2023-09-19T00:33:02;30.13;;;24.00;;
66927;SDS011;59882;45.624;11.698;2023-09-19T00:35:31;31.63;;;23.23;;
66927;SDS011;59882;45.624;11.698;2023-09-19T00:37:56;26.60;;;21.40;;
66927;SDS011;59882;45.624;11.698;2023-09-19T00:40:22;28.98;;;22.55;;
66927;SDS011;59882;45.624;11.698;2023-09-19T00:42:48;30.90;;;22.53;;
66927;SDS011;59882;45.624;11.698;2023-09-19T00:45:15;29.05;;;23.35;;
66927;SDS011;59882;45.624;11.698;2023-09-19T00:47:44;29.80;;;22.35;;
66927;SDS011;59882;45.624;11.698;2023-09-19T00:50:11;27.65;;;21.90;;
66927;SDS011;59882;45.624;11.698;2023-09-19T00:52:39;36.03;;;22.70;;
66927;SDS011;59882;45.624;11.698;2023-09-19T00:55:07;29.70;;;21.63;;
66927;SDS011;59882;45.624;11.698;2023-09-19T00:57:34;28.20;;;21.10;;
66927;SDS011;59882;45.624;11.698;2023-09-19T01:00:01;25.63;;;19.83;;
66927;SDS011;59882;45.624;11.698;2023-09-19T01:02:31;27.90;;;19.02;;
66927;SDS011;59882;45.624;11.698;2023-09-19T01:04:58;20.85;;;18.00;;
66927;SDS011;59882;45.624;11.698;2023-09-19T01:07:25;25.17;;;18.67;;
66927;SDS011;59882;45.624;11.698;2023-09-19T01:09:51;25.38;;;19.40;;
66927;SDS011;59882;45.624;11.698;2023-09-19T01:12:21;27.98;;;21.17;;
66927;SDS011;59882;45.624;11.698;2023-09-19T01:14:54;27.77;;;20.65;;
66927;SDS011;59882;45.624;11.698;2023-09-19T01:17:39;25.63;;;19.40;;
66927;SDS011;59882;45.624;11.698;2023-09-19T01:20:19;30.17;;;20.43;;
66927;SDS011;59882;45.624;11.698;2023-09-19T01:29:33;25.67;;;19.08;;
66927;SDS011;59882;45.624;11.698;2023-09-19T01:32:04;25.90;;;17.90;;
66927;SDS011;59882;45.624;11.698;2023-09-19T01:37:29;27.50;;;19.60;;
66927;SDS011;59882;45.624;11.698;2023-09-19T01:40:00;23.50;;;18.98;;
66927;SDS011;59882;45.624;11.698;2023-09-19T01:42:59;26.50;;;19.23;;
66927;SDS011;59882;45.624;11.698;2023-09-19T01:48:24;28.00;;;18.00;;
66927;SDS011;59882;45.624;11.698;2023-09-19T01:51:08;27.00;;;17.73;;
66927;SDS011;59882;45.624;11.698;2023-09-19T01:53:43;29.67;;;20.58;;
66927;SDS011;59882;45.624;11.698;2023-09-19T01:56:12;30.70;;;20.55;;
66927;SDS011;59882;45.624;11.698;2023-09-19T01:58:51;31.83;;;21.85;;
66927;SDS011;59882;45.624;11.698;2023-09-19T02:01:22;28.57;;;20.33;;
66927;SDS011;59882;45.624;11.698;2023-09-19T02:03:51;28.08;;;20.13;;
66927;SDS011;59882;45.624;11.698;2023-09-19T02:06:18;33.42;;;21.55;;
66927;SDS011;59882;45.624;11.698;2023-09-19T02:08:46;32.13;;;21.15;;
66927;SDS011;59882;45.624;11.698;2023-09-19T02:11:12;33.50;;;21.52;;
66927;SDS011;59882;45.624;11.698;2023-09-19T02:13:38;30.00;;;22.37;;
66927;SDS011;59882;45.624;11.698;2023-09-19T02:16:05;30.17;;;21.65;;
66927;SDS011;59882;45.624;11.698;2023-09-19T02:18:32;31.98;;;21.10;;
66927;SDS011;59882;45.624;11.698;2023-09-19T02:21:00;31.10;;;21.02;;
66927;SDS011;59882;45.624;11.698;2023-09-19T02:23:26;26.60;;;19.98;;
66927;SDS011;59882;45.624;11.698;2023-09-19T02:25:52;30.53;;;20.63;;
66927;SDS011;59882;45.624;11.698;2023-09-19T02:28:19;28.45;;;19.85;;
66927;SDS011;59882;45.624;11.698;2023-09-19T02:30:48;30.15;;;19.27;;
66927;SDS011;59882;45.624;11.698;2023-09-19T02:33:14;31.20;;;20.02;;
66927;SDS011;59882;45.624;11.698;2023-09-19T02:35:40;30.00;;;18.83;;
66927;SDS011;59882;45.624;11.698;2023-09-19T02:38:05;29.77;;;20.63;;
66927;SDS011;59882;45.624;11.698;2023-09-19T02:40:32;31.75;;;20.08;;
66927;SDS011;59882;45.624;11.698;2023-09-19T02:43:00;27.15;;;17.25;;
66927;SDS011;59882;45.624;11.698;2023-09-19T02:45:27;28.70;;;18.23;;
66927;SDS011;59882;45.624;11.698;2023-09-19T02:47:52;25.05;;;17.80;;
66927;SDS011;59882;45.624;11.698;2023-09-19T02:50:19;22.55;;;16.88;;
66927;SDS011;59882;45.624;11.698;2023-09-19T02:52:45;26.73;;;17.90;;
66927;SDS011;59882;45.624;11.698;2023-09-19T02:55:13;24.92;;;17.45;;
66927;SDS011;59882;45.624;11.698;2023-09-19T02:57:50;25.38;;;15.95;;
66927;SDS011;59882;45.624;11.698;2023-09-19T03:00:20;22.13;;;15.77;;
66927;SDS011;59882;45.624;11.698;2023-09-19T03:02:50;24.38;;;16.60;;
66927;SDS011;59882;45.624;11.698;2023-09-19T03:05:18;22.27;;;14.03;;
66927;SDS011;59882;45.624;11.698;2023-09-19T03:07:44;21.85;;;14.90;;
66927;SDS011;59882;45.624;11.698;2023-09-19T03:10:12;24.33;;;14.82;;
66927;SDS011;59882;45.624;11.698;2023-09-19T03:12:40;23.10;;;13.70;;
66927;SDS011;59882;45.624;11.698;2023-09-19T03:15:05;21.87;;;12.70;;
66927;SDS011;59882;45.624;11.698;2023-09-19T03:17:33;19.58;;;12.85;;
66927;SDS011;59882;45.624;11.698;2023-09-19T03:19:59;20.60;;;11.93;;
66927;SDS011;59882;45.624;11.698;2023-09-19T03:22:26;20.60;;;12.47;;
66927;SDS011;59882;45.624;11.698;2023-09-19T03:24:52;16.70;;;11.32;;
66927;SDS011;59882;45.624;11.698;2023-09-19T03:27:18;20.15;;;12.45;;
66927;SDS011;59882;45.624;11.698;2023-09-19T03:29:43;20.33;;;12.40;;
66927;SDS011;59882;45.624;11.698;2023-09-19T03:32:09;17.70;;;11.63;;
66927;SDS011;59882;45.624;11.698;2023-09-19T03:34:36;17.90;;;12.38;;
66927;SDS011;59882;45.624;11.698;2023-09-19T03:37:05;19.33;;;12.50;;
66927;SDS011;59882;45.624;11.698;2023-09-19T03:39:31;20.13;;;12.10;;
66927;SDS011;59882;45.624;11.698;2023-09-19T03:41:57;20.10;;;12.32;;
66927;SDS011;59882;45.624;11.698;2023-09-19T03:44:23;22.57;;;11.73;;
66927;SDS011;59882;45.624;11.698;2023-09-19T03:46:48;19.07;;;11.77;;
66927;SDS011;59882;45.624;11.698;2023-09-19T03:49:14;20.03;;;10.90;;
66927;SDS011;59882;45.624;11.698;2023-09-19T03:51:40;18.05;;;11.10;;
66927;SDS011;59882;45.624;11.698;2023-09-19T03:54:06;22.40;;;11.70;;
66927;SDS011;59882;45.624;11.698;2023-09-19T03:56:32;20.58;;;11.18;;
66927;SDS011;59882;45.624;11.698;2023-09-19T03:58:58;18.73;;;10.15;;
66927;SDS011;59882;45.624;11.698;2023-09-19T04:01:24;14.70;;;10.60;;
66927;SDS011;59882;45.624;11.698;2023-09-19T04:03:52;15.88;;;10.50;;
66927;SDS011;59882;45.624;11.698;2023-09-19T04:06:18;16.30;;;10.68;;
66927;SDS011;59882;45.624;11.698;2023-09-19T04:08:44;16.50;;;10.45;;
66927;SDS011;59882;45.624;11.698;2023-09-19T04:11:11;22.73;;;10.50;;
66927;SDS011;59882;45.624;11.698;2023-09-19T04:13:37;17.38;;;10.25;;
66927;SDS011;59882;45.624;11.698;2023-09-19T04:16:03;17.27;;;10.63;;
66927;SDS011;59882;45.624;11.698;2023-09-19T04:18:38;16.92;;;9.95;;
66927;SDS011;59882;45.624;11.698;2023-09-19T04:21:04;15.68;;;9.60;;
66927;SDS011;59882;45.624;11.698;2023-09-19T04:23:31;15.75;;;10.50;;
66927;SDS011;59882;45.624;11.698;2023-09-19T04:25:57;16.15;;;9.90;;
66927;SDS011;59882;45.624;11.698;2023-09-19T04:28:23;16.23;;;10.57;;
66927;SDS011;59882;45.624;11.698;2023-09-19T04:30:49;14.90;;;9.98;;
66927;SDS011;59882;45.624;11.698;2023-09-19T04:33:15;17.35;;;10.48;;
66927;SDS011;59882;45.624;11.698;2023-09-19T04:35:41;15.40;;;10.37;;
66927;SDS011;59882;45.624;11.698;2023-09-19T04:38:09;19.75;;;10.43;;
66927;SDS011;59882;45.624;11.698;2023-09-19T04:40:35;16.43;;;9.40;;
66927;SDS011;59882;45.624;11.698;2023-09-19T04:43:01;13.95;;;8.38;;
66927;SDS011;59882;45.624;11.698;2023-09-19T04:45:27;14.40;;;9.03;;
66927;SDS011;59882;45.624;11.698;2023-09-19T04:47:53;14.15;;;8.55;;
66927;SDS011;59882;45.624;11.698;2023-09-19T04:50:19;19.40;;;11.03;;
66927;SDS011;59882;45.624;11.698;2023-09-19T04:52:46;18.97;;;9.70;;
66927;SDS011;59882;45.624;11.698;2023-09-19T04:55:16;16.05;;;9.35;;
66927;SDS011;59882;45.624;11.698;2023-09-19T04:57:51;17.05;;;8.65;;
66927;SDS011;59882;45.624;11.698;2023-09-19T05:00:19;14.27;;;8.30;;
66927;SDS011;59882;45.624;11.698;2023-09-19T05:02:51;16.77;;;8.60;;
66927;SDS011;59882;45.624;11.698;2023-09-19T05:05:20;16.60;;;7.93;;
66927;SDS011;59882;45.624;11.698;2023-09-19T05:07:47;13.48;;;8.20;;
66927;SDS011;59882;45.624;11.698;2023-09-19T05:10:13;17.38;;;7.30;;
66927;SDS011;59882;45.624;11.698;2023-09-19T05:12:40;12.93;;;7.60;;
66927;SDS011;59882;45.624;11.698;2023-09-19T05:15:06;13.85;;;7.82;;
66927;SDS011;59882;45.624;11.698;2023-09-19T05:17:33;19.20;;;9.23;;
66927;SDS011;59882;45.624;11.698;2023-09-19T05:19:59;17.63;;;8.68;;
66927;SDS011;59882;45.624;11.698;2023-09-19T05:22:49;13.40;;;7.65;;
66927;SDS011;59882;45.624;11.698;2023-09-19T05:25:16;13.67;;;7.93;;
66927;SDS011;59882;45.624;11.698;2023-09-19T05:27:43;11.82;;;9.10;;
66927;SDS011;59882;45.624;11.698;2023-09-19T05:30:09;12.50;;;7.18;;
66927;SDS011;59882;45.624;11.698;2023-09-19T05:32:35;12.35;;;7.50;;
66927;SDS011;59882;45.624;11.698;2023-09-19T05:35:01;12.93;;;7.33;;
66927;SDS011;59882;45.624;11.698;2023-09-19T05:37:28;14.30;;;8.32;;
66927;SDS011;59882;45.624;11.698;2023-09-19T05:39:54;15.18;;;8.07;;
66927;SDS011;59882;45.624;11.698;2023-09-19T05:42:20;17.73;;;7.83;;
66927;SDS011;59882;45.624;11.698;2023-09-19T05:44:46;14.18;;;8.15;;
66927;SDS011;59882;45.624;11.698;2023-09-19T05:47:11;18.07;;;8.23;;
66927;SDS011;59882;45.624;11.698;2023-09-19T05:49:38;14.05;;;8.77;;
66927;SDS011;59882;45.624;11.698;2023-09-19T05:52:06;19.30;;;8.53;;
66927;SDS011;59882;45.624;11.698;2023-09-19T05:54:32;16.23;;;9.05;;
66927;SDS011;59882;45.624;11.698;2023-09-19T05:56:59;18.20;;;9.73;;
66927;SDS011;59882;45.624;11.698;2023-09-19T05:59:25;16.93;;;10.43;;
66927;SDS011;59882;45.624;11.698;2023-09-19T06:01:51;23.08;;;11.07;;
66927;SDS011;59882;45.624;11.698;2023-09-19T06:04:17;18.77;;;10.32;;
66927;SDS011;59882;45.624;11.698;2023-09-19T06:06:44;19.20;;;10.40;;
66927;SDS011;59882;45.624;11.698;2023-09-19T06:09:10;20.55;;;10.77;;
66927;SDS011;59882;45.624;11.698;2023-09-19T06:11:35;16.05;;;9.85;;
66927;SDS011;59882;45.624;11.698;2023-09-19T06:14:02;19.73;;;9.57;;
66927;SDS011;59882;45.624;11.698;2023-09-19T06:16:28;15.40;;;8.93;;
66927;SDS011;59882;45.624;11.698;2023-09-19T06:18:55;19.20;;;9.40;;
66927;SDS011;59882;45.624;11.698;2023-09-19T06:21:21;20.03;;;9.93;;
66927;SDS011;59882;45.624;11.698;2023-09-19T06:23:50;19.75;;;9.20;;
66927;SDS011;59882;45.624;11.698;2023-09-19T06:26:15;14.75;;;8.32;;
66927;SDS011;59882;45.624;11.698;2023-09-19T06:28:42;17.52;;;8.35;;
66927;SDS011;59882;45.624;11.698;2023-09-19T06:31:08;18.80;;;8.30;;
66927;SDS011;59882;45.624;11.698;2023-09-19T06:33:38;14.68;;;8.30;;
66927;SDS011;59882;45.624;11.698;2023-09-19T06:36:07;15.05;;;7.88;;
66927;SDS011;59882;45.624;11.698;2023-09-19T06:38:33;15.52;;;8.13;;
66927;SDS011;59882;45.624;11.698;2023-09-19T06:41:04;13.40;;;7.80;;
66927;SDS011;59882;45.624;11.698;2023-09-19T06:43:30;16.73;;;8.07;;
66927;SDS011;59882;45.624;11.698;2023-09-19T06:45:59;17.08;;;8.23;;
66927;SDS011;59882;45.624;11.698;2023-09-19T06:48:26;15.90;;;8.05;;
66927;SDS011;59882;45.624;11.698;2023-09-19T06:50:54;16.20;;;8.10;;
66927;SDS011;59882;45.624;11.698;2023-09-19T06:53:23;16.07;;;8.63;;
66927;SDS011;59882;45.624;11.698;2023-09-19T06:55:50;17.98;;;9.73;;
66927;SDS011;59882;45.624;11.698;2023-09-19T06:58:16;18.00;;;9.90;;
66927;SDS011;59882;45.624;11.698;2023-09-19T07:00:42;15.40;;;9.53;;
66927;SDS011;59882;45.624;11.698;2023-09-19T07:03:08;14.77;;;8.80;;
66927;SDS011;59882;45.624;11.698;2023-09-19T07:05:36;15.20;;;9.65;;
66927;SDS011;59882;45.624;11.698;2023-09-19T07:08:03;14.70;;;9.20;;
66927;SDS011;59882;45.624;11.698;2023-09-19T07:10:31;14.90;;;8.90;;
66927;SDS011;59882;45.624;11.698;2023-09-19T07:15:25;16.02;;;8.80;;
66927;SDS011;59882;45.624;11.698;2023-09-19T07:17:52;15.50;;;8.48;;
66927;SDS011;59882;45.624;11.698;2023-09-19T07:20:19;15.95;;;9.20;;
66927;SDS011;59882;45.624;11.698;2023-09-19T07:22:44;20.97;;;9.50;;
66927;SDS011;59882;45.624;11.698;2023-09-19T07:25:11;18.95;;;9.75;;
66927;SDS011;59882;45.624;11.698;2023-09-19T07:27:39;15.27;;;9.40;;
66927;SDS011;59882;45.624;11.698;2023-09-19T07:30:05;19.23;;;8.88;;
66927;SDS011;59882;45.624;11.698;2023-09-19T07:32:33;15.73;;;9.10;;
66927;SDS011;59882;45.624;11.698;2023-09-19T07:35:01;13.40;;;9.00;;
66927;SDS011;59882;45.624;11.698;2023-09-19T07:37:28;18.40;;;10.43;;
66927;SDS011;59882;45.624;11.698;2023-09-19T07:39:56;17.50;;;10.50;;
66927;SDS011;59882;45.624;11.698;2023-09-19T07:42:21;17.33;;;10.68;;
66927;SDS011;59882;45.624;11.698;2023-09-19T07:44:47;18.60;;;11.63;;
66927;SDS011;59882;45.624;11.698;2023-09-19T07:47:15;22.83;;;12.48;;
66927;SDS011;59882;45.624;11.698;2023-09-19T07:49:41;18.73;;;11.90;;
66927;SDS011;59882;45.624;11.698;2023-09-19T07:52:08;22.60;;;12.05;;
66927;SDS011;59882;45.624;11.698;2023-09-19T07:54:34;21.92;;;11.13;;
66927;SDS011;59882;45.624;11.698;2023-09-19T07:57:00;16.67;;;10.63;;
66927;SDS011;59882;45.624;11.698;2023-09-19T07:59:27;16.17;;;9.35;;
66927;SDS011;59882;45.624;11.698;2023-09-19T08:01:53;19.10;;;9.27;;
66927;SDS011;59882;45.624;11.698;2023-09-19T08:04:19;21.23;;;9.00;;
66927;SDS011;59882;45.624;11.698;2023-09-19T08:06:44;21.43;;;10.30;;
66927;SDS011;59882;45.624;11.698;2023-09-19T08:09:10;22.65;;;11.63;;
66927;SDS011;59882;45.624;11.698;2023-09-19T08:11:37;19.27;;;11.70;;
66927;SDS011;59882;45.624;11.698;2023-09-19T08:14:04;20.00;;;11.85;;
66927;SDS011;59882;45.624;11.698;2023-09-19T08:16:33;18.98;;;10.80;;
66927;SDS011;59882;45.624;11.698;2023-09-19T08:18:59;19.87;;;10.43;;
66927;SDS011;59882;45.624;11.698;2023-09-19T08:21:24;19.95;;;11.10;;
66927;SDS011;59882;45.624;11.698;2023-09-19T08:23:52;18.60;;;10.60;;
66927;SDS011;59882;45.624;11.698;2023-09-19T08:26:18;17.30;;;11.90;;
66927;SDS011;59882;45.624;11.698;2023-09-19T08:28:44;18.63;;;12.73;;
66927;SDS011;59882;45.624;11.698;2023-09-19T08:31:10;20.20;;;12.37;;
66927;SDS011;59882;45.624;11.698;2023-09-19T08:33:36;18.87;;;11.27;;
66927;SDS011;59882;45.624;11.698;2023-09-19T08:36:02;17.30;;;11.18;;
66927;SDS011;59882;45.624;11.698;2023-09-19T08:38:33;17.95;;;10.50;;
66927;SDS011;59882;45.624;11.698;2023-09-19T08:41:00;20.45;;;11.48;;
66927;SDS011;59882;45.624;11.698;2023-09-19T08:43:26;17.98;;;11.52;;
66927;SDS011;59882;45.624;11.698;2023-09-19T08:45:57;23.33;;;11.63;;
66927;SDS011;59882;45.624;11.698;2023-09-19T08:48:31;18.92;;;12.30;;
66927;SDS011;59882;45.624;11.698;2023-09-19T08:56:13;19.73;;;12.68;;
66927;SDS011;59882;45.624;11.698;2023-09-19T09:01:19;19.58;;;12.68;;
66927;SDS011;59882;45.624;11.698;2023-09-19T09:03:49;26.75;;;13.70;;
66927;SDS011;59882;45.624;11.698;2023-09-19T09:06:20;22.23;;;11.80;;
66927;SDS011;59882;45.624;11.698;2023-09-19T09:08:46;17.60;;;11.35;;
66927;SDS011;59882;45.624;11.698;2023-09-19T09:11:16;17.90;;;10.80;;
66927;SDS011;59882;45.624;11.698;2023-09-19T09:13:45;15.90;;;10.25;;
66927;SDS011;59882;45.624;11.698;2023-09-19T09:16:12;23.25;;;13.20;;
66927;SDS011;59882;45.624;11.698;2023-09-19T09:18:39;19.55;;;11.95;;
66927;SDS011;59882;45.624;11.698;2023-09-19T09:21:05;18.73;;;11.43;;
66927;SDS011;59882;45.624;11.698;2023-09-19T09:23:30;19.03;;;11.03;;
66927;SDS011;59882;45.624;11.698;2023-09-19T09:25:57;17.08;;;9.85;;
66927;SDS011;59882;45.624;11.698;2023-09-19T09:28:27;19.67;;;10.90;;
66927;SDS011;59882;45.624;11.698;2023-09-19T09:30:55;15.73;;;10.73;;
66927;SDS011;59882;45.624;11.698;2023-09-19T09:33:25;23.45;;;10.50;;
66927;SDS011;59882;45.624;11.698;2023-09-19T09:38:46;17.05;;;10.55;;
66927;SDS011;59882;45.624;11.698;2023-09-19T09:41:13;13.48;;;9.77;;
66927;SDS011;59882;45.624;11.698;2023-09-19T09:43:52;18.83;;;11.13;;
66927;SDS011;59882;45.624;11.698;2023-09-19T09:46:19;17.30;;;9.30;;
66927;SDS011;59882;45.624;11.698;2023-09-19T09:48:45;18.85;;;9.25;;
66927;SDS011;59882;45.624;11.698;2023-09-19T09:51:32;12.18;;;8.45;;
66927;SDS011;59882;45.624;11.698;2023-09-19T09:57:02;12.87;;;6.83;;
66927;SDS011;59882;45.624;11.698;2023-09-19T09:59:54;13.90;;;7.90;;
66927;SDS011;59882;45.624;11.698;2023-09-19T10:02:40;14.93;;;9.00;;
66927;SDS011;59882;45.624;11.698;2023-09-19T10:08:09;13.52;;;8.18;;
66927;SDS011;59882;45.624;11.698;2023-09-19T10:10:40;13.87;;;7.13;;
66927;SDS011;59882;45.624;11.698;2023-09-19T10:13:07;12.55;;;6.18;;
66927;SDS011;59882;45.624;11.698;2023-09-19T10:15:43;11.93;;;6.70;;
66927;SDS011;59882;45.624;11.698;2023-09-19T10:18:16;15.18;;;7.93;;
66927;SDS011;59882;45.624;11.698;2023-09-19T10:20:45;12.13;;;7.85;;
66927;SDS011;59882;45.624;11.698;2023-09-19T10:23:12;14.63;;;6.97;;
66927;SDS011;59882;45.624;11.698;2023-09-19T10:25:39;14.07;;;7.13;;
66927;SDS011;59882;45.624;11.698;2023-09-19T10:28:06;15.77;;;7.47;;
66927;SDS011;59882;45.624;11.698;2023-09-19T10:30:45;10.80;;;6.80;;
66927;SDS011;59882;45.624;11.698;2023-09-19T10:33:15;15.23;;;6.93;;
66927;SDS011;59882;45.624;11.698;2023-09-19T10:35:44;12.27;;;5.97;;
66927;SDS011;59882;45.624;11.698;2023-09-19T10:38:11;12.80;;;6.25;;
66927;SDS011;59882;45.624;11.698;2023-09-19T10:40:38;14.95;;;5.82;;
66927;SDS011;59882;45.624;11.698;2023-09-19T10:43:21;10.52;;;4.82;;
66927;SDS011;59882;45.624;11.698;2023-09-19T10:45:51;13.40;;;5.53;;
66927;SDS011;59882;45.624;11.698;2023-09-19T10:48:19;12.80;;;5.40;;
66927;SDS011;59882;45.624;11.698;2023-09-19T10:51:09;12.18;;;5.07;;
66927;SDS011;59882;45.624;11.698;2023-09-19T10:53:42;10.40;;;5.22;;
66927;SDS011;59882;45.624;11.698;2023-09-19T10:56:15;9.82;;;4.93;;
66927;SDS011;59882;45.624;11.698;2023-09-19T10:58:52;12.32;;;5.55;;
66927;SDS011;59882;45.624;11.698;2023-09-19T11:01:48;14.13;;;5.90;;
66927;SDS011;59882;45.624;11.698;2023-09-19T11:07:04;11.05;;;5.55;;
66927;SDS011;59882;45.624;11.698;2023-09-19T11:09:46;11.25;;;5.60;;
66927;SDS011;59882;45.624;11.698;2023-09-19T11:15:01;9.67;;;4.13;;
66927;SDS011;59882;45.624;11.698;2023-09-19T11:17:39;9.70;;;4.80;;
66927;SDS011;59882;45.624;11.698;2023-09-19T11:30:32;11.40;;;4.53;;
66927;SDS011;59882;45.624;11.698;2023-09-19T11:35:58;12.53;;;4.37;;
66927;SDS011;59882;45.624;11.698;2023-09-19T11:43:51;11.63;;;5.95;;
66927;SDS011;59882;45.624;11.698;2023-09-19T11:46:51;13.35;;;5.68;;
66927;SDS011;59882;45.624;11.698;2023-09-19T11:49:17;10.53;;;5.13;;
66927;SDS011;59882;45.624;11.698;2023-09-19T11:51:49;14.20;;;5.72;;
66927;SDS011;59882;45.624;11.698;2023-09-19T11:54:19;13.48;;;6.10;;
66927;SDS011;59882;45.624;11.698;2023-09-19T11:56:49;12.38;;;6.72;;
66927;SDS011;59882;45.624;11.698;2023-09-19T11:59:30;13.18;;;5.80;;
66927;SDS011;59882;45.624;11.698;2023-09-19T12:02:00;15.90;;;6.20;;
66927;SDS011;59882;45.624;11.698;2023-09-19T12:04:35;13.85;;;5.43;;
66927;SDS011;59882;45.624;11.698;2023-09-19T12:09:41;10.57;;;4.72;;
66927;SDS011;59882;45.624;11.698;2023-09-19T12:12:46;12.85;;;5.50;;
66927;SDS011;59882;45.624;11.698;2023-09-19T12:15:05;9.53;;;4.20;;
66927;SDS011;59882;45.624;11.698;2023-09-19T12:17:38;14.65;;;5.30;;
66927;SDS011;59882;45.624;11.698;2023-09-19T12:20:06;10.93;;;5.18;;
66927;SDS011;59882;45.624;11.698;2023-09-19T12:22:42;11.52;;;5.00;;
66927;SDS011;59882;45.624;11.698;2023-09-19T12:25:09;9.98;;;4.57;;
66927;SDS011;59882;45.624;11.698;2023-09-19T12:27:43;10.93;;;4.53;;
66927;SDS011;59882;45.624;11.698;2023-09-19T12:30:09;11.82;;;4.38;;
66927;SDS011;59882;45.624;11.698;2023-09-19T12:32:39;7.03;;;3.95;;
66927;SDS011;59882;45.624;11.698;2023-09-19T12:35:06;9.48;;;4.50;;
66927;SDS011;59882;45.624;11.698;2023-09-19T12:37:42;9.15;;;4.00;;
66927;SDS011;59882;45.624;11.698;2023-09-19T12:40:18;9.48;;;4.05;;
66927;SDS011;59882;45.624;11.698;2023-09-19T12:42:52;9.02;;;4.28;;
66927;SDS011;59882;45.624;11.698;2023-09-19T12:45:27;9.93;;;3.95;;
66927;SDS011;59882;45.624;11.698;2023-09-19T12:51:34;8.27;;;3.72;;
66927;SDS011;59882;45.624;11.698;2023-09-19T12:56:07;7.43;;;4.07;;
66927;SDS011;59882;45.624;11.698;2023-09-19T12:58:47;8.25;;;4.63;;
66927;SDS011;59882;45.624;11.698;2023-09-19T13:01:14;9.48;;;3.90;;
66927;SDS011;59882;45.624;11.698;2023-09-19T13:03:41;7.70;;;4.07;;
66927;SDS011;59882;45.624;11.698;2023-09-19T13:06:07;8.50;;;3.70;;
66927;SDS011;59882;45.624;11.698;2023-09-19T13:08:36;8.18;;;4.32;;
66927;SDS011;59882;45.624;11.698;2023-09-19T13:13:50;10.52;;;3.90;;
66927;SDS011;59882;45.624;11.698;2023-09-19T13:25:15;9.57;;;3.50;;
66927;SDS011;59882;45.624;11.698;2023-09-19T13:27:48;11.25;;;4.63;;
66927;SDS011;59882;45.624;11.698;2023-09-19T13:30:17;9.33;;;3.83;;
66927;SDS011;59882;45.624;11.698;2023-09-19T13:32:44;12.20;;;4.07;;
66927;SDS011;59882;45.624;11.698;2023-09-19T13:35:12;12.07;;;4.20;;
66927;SDS011;59882;45.624;11.698;2023-09-19T13:37:38;8.88;;;3.45;;
66927;SDS011;59882;45.624;11.698;2023-09-19T13:42:34;7.77;;;3.10;;
66927;SDS011;59882;45.624;11.698;2023-09-19T13:45:01;8.30;;;3.60;;
66927;SDS011;59882;45.624;11.698;2023-09-19T13:47:30;8.02;;;3.38;;
66927;SDS011;59882;45.624;11.698;2023-09-19T13:49:57;10.27;;;4.32;;
66927;SDS011;59882;45.624;11.698;2023-09-19T13:52:23;11.98;;;4.10;;
66927;SDS011;59882;45.624;11.698;2023-09-19T13:54:52;10.40;;;4.00;;
66927;SDS011;59882;45.624;11.698;2023-09-19T13:57:19;12.35;;;4.10;;
66927;SDS011;59882;45.624;11.698;2023-09-19T13:59:44;10.57;;;4.10;;
66927;SDS011;59882;45.624;11.698;2023-09-19T14:02:10;10.35;;;4.00;;
66927;SDS011;59882;45.624;11.698;2023-09-19T14:04:35;9.17;;;3.53;;
66927;SDS011;59882;45.624;11.698;2023-09-19T14:07:01;14.15;;;4.22;;
66927;SDS011;59882;45.624;11.698;2023-09-19T14:09:29;11.07;;;3.87;;
66927;SDS011;59882;45.624;11.698;2023-09-19T14:11:55;9.25;;;4.00;;
66927;SDS011;59882;45.624;11.698;2023-09-19T14:14:22;9.90;;;3.70;;
66927;SDS011;59882;45.624;11.698;2023-09-19T14:16:47;7.27;;;3.63;;
66927;SDS011;59882;45.624;11.698;2023-09-19T14:19:13;10.10;;;3.35;;
66927;SDS011;59882;45.624;11.698;2023-09-19T14:21:41;7.82;;;3.58;;
66927;SDS011;59882;45.624;11.698;2023-09-19T14:24:07;8.32;;;3.42;;
66927;SDS011;59882;45.624;11.698;2023-09-19T14:26:35;11.07;;;3.67;;
66927;SDS011;59882;45.624;11.698;2023-09-19T14:29:01;10.05;;;3.58;;
66927;SDS011;59882;45.624;11.698;2023-09-19T14:31:26;8.30;;;3.30;;
66927;SDS011;59882;45.624;11.698;2023-09-19T14:33:55;11.00;;;3.77;;
66927;SDS011;59882;45.624;11.698;2023-09-19T14:36:24;8.40;;;3.65;;
66927;SDS011;59882;45.624;11.698;2023-09-19T14:38:53;11.57;;;3.72;;
66927;SDS011;59882;45.624;11.698;2023-09-19T14:41:20;11.52;;;3.88;;
66927;SDS011;59882;45.624;11.698;2023-09-19T14:43:46;7.25;;;3.60;;
66927;SDS011;59882;45.624;11.698;2023-09-19T14:46:12;10.33;;;4.17;;
66927;SDS011;59882;45.624;11.698;2023-09-19T14:48:39;9.13;;;5.55;;
66927;SDS011;59882;45.624;11.698;2023-09-19T14:51:05;10.50;;;4.53;;
66927;SDS011;59882;45.624;11.698;2023-09-19T14:53:33;9.37;;;3.53;;
66927;SDS011;59882;45.624;11.698;2023-09-19T14:56:00;8.45;;;3.30;;
66927;SDS011;59882;45.624;11.698;2023-09-19T14:58:32;8.75;;;3.40;;
66927;SDS011;59882;45.624;11.698;2023-09-19T15:03:35;8.18;;;3.50;;
66927;SDS011;59882;45.624;11.698;2023-09-19T15:06:02;9.03;;;4.33;;
66927;SDS011;59882;45.624;11.698;2023-09-19T15:08:35;7.57;;;3.97;;
66927;SDS011;59882;45.624;11.698;2023-09-19T15:11:03;7.40;;;4.00;;
66927;SDS011;59882;45.624;11.698;2023-09-19T15:13:30;10.18;;;4.90;;
66927;SDS011;59882;45.624;11.698;2023-09-19T15:16:00;13.20;;;4.35;;
66927;SDS011;59882;45.624;11.698;2023-09-19T15:18:27;7.60;;;3.33;;
66927;SDS011;59882;45.624;11.698;2023-09-19T15:20:53;12.55;;;5.00;;
66927;SDS011;59882;45.624;11.698;2023-09-19T15:23:19;9.10;;;3.78;;
66927;SDS011;59882;45.624;11.698;2023-09-19T15:25:48;6.90;;;3.20;;
66927;SDS011;59882;45.624;11.698;2023-09-19T15:28:15;12.52;;;4.53;;
66927;SDS011;59882;45.624;11.698;2023-09-19T15:30:40;13.57;;;3.85;;
66927;SDS011;59882;45.624;11.698;2023-09-19T15:33:06;7.77;;;3.80;;
66927;SDS011;59882;45.624;11.698;2023-09-19T15:35:32;13.00;;;3.88;;
66927;SDS011;59882;45.624;11.698;2023-09-19T15:37:58;8.23;;;3.60;;
66927;SDS011;59882;45.624;11.698;2023-09-19T15:40:25;10.77;;;3.80;;
66927;SDS011;59882;45.624;11.698;2023-09-19T15:42:52;10.52;;;3.05;;
66927;SDS011;59882;45.624;11.698;2023-09-19T15:45:19;10.60;;;3.25;;
66927;SDS011;59882;45.624;11.698;2023-09-19T15:47:45;12.63;;;3.60;;